createdAt,value
2022-08-22T00:01:55.800Z,58.59
2022-08-22T00:02:48.063Z,58.74
2022-08-22T00:02:58.815Z,59.68
2022-08-22T00:02:59.810Z,59.40
2022-08-22T00:03:03.567Z,57.62
2022-08-22T00:04:57.474Z,59.23
2022-08-22T00:07:30.620Z,59.46
2022-08-22T00:10:04.340Z,58.50
2022-08-22T00:13:17.623Z,57.76
2022-08-22T00:15:52.076Z,57.64
2022-08-22T00:18:35.302Z,57.62
2022-08-22T00:21:22.421Z,57.72
2022-08-22T00:24:17.627Z,58.82
2022-08-22T00:27:10.587Z,59.53
2022-08-22T00:29:46.026Z,59.37
2022-08-22T00:32:13.115Z,58.70
2022-08-22T00:34:51.282Z,58.54
2022-08-22T00:37:32.667Z,58.40
2022-08-22T00:40:09.059Z,58.81
2022-08-22T00:43:15.811Z,59.28
2022-08-22T00:46:01.703Z,60.37
2022-08-22T00:48:43.700Z,59.39
2022-08-22T00:51:53.037Z,58.86
2022-08-22T00:54:44.763Z,58.99
2022-08-22T00:57:40.278Z,58.84
2022-08-22T01:00:13.773Z,59.22
2022-08-22T01:02:59.972Z,59.34
2022-08-22T01:05:42.175Z,59.95
2022-08-22T01:08:34.049Z,59.14
2022-08-22T01:11:20.034Z,59.35
2022-08-22T01:14:04.348Z,59.14
2022-08-22T01:17:03.652Z,59.04
2022-08-22T01:19:53.034Z,58.95
2022-08-22T01:22:50.280Z,59.64
2022-08-22T01:25:32.626Z,59.30
2022-08-22T01:28:16.667Z,58.71
2022-08-22T01:31:08.810Z,58.45
2022-08-22T01:34:13.398Z,58.67
2022-08-22T01:36:40.755Z,59.07
2022-08-22T01:39:37.158Z,59.91
2022-08-22T01:42:15.175Z,59.78
2022-08-22T01:45:06.243Z,58.96
2022-08-22T01:47:47.523Z,58.15
2022-08-22T01:50:21.593Z,58.30
2022-08-22T01:53:11.884Z,58.22
2022-08-22T01:56:00.657Z,58.58
2022-08-22T01:58:33.494Z,59.44
2022-08-22T02:01:13.485Z,59.45
2022-08-22T02:04:14.850Z,57.60
2022-08-22T02:07:06.469Z,57.38
2022-08-22T02:10:07.903Z,57.48
2022-08-22T02:12:41.589Z,57.74
2022-08-22T02:15:14.869Z,57.83
2022-08-22T02:18:01.029Z,58.71
2022-08-22T02:21:02.653Z,59.10
2022-08-22T02:23:56.734Z,57.44
2022-08-22T02:27:04.442Z,57.26
2022-08-22T02:29:42.954Z,57.80
2022-08-22T02:32:28.838Z,58.11
2022-08-22T02:34:55.930Z,57.86
2022-08-22T02:37:37.477Z,58.07
2022-08-22T02:40:27.540Z,58.63
2022-08-22T02:43:09.560Z,57.48
2022-08-22T02:46:08.045Z,56.85
2022-08-22T02:49:02.667Z,56.59
2022-08-22T02:51:48.439Z,56.69
2022-08-22T02:54:37.490Z,56.98
2022-08-22T02:57:39.714Z,57.49
2022-08-22T03:00:31.720Z,58.34
2022-08-22T03:03:00.070Z,57.67
2022-08-22T03:05:41.966Z,57.18
2022-08-22T03:08:23.348Z,56.93
2022-08-22T03:11:12.617Z,56.70
2022-08-22T03:14:17.451Z,56.62
2022-08-22T03:17:21.199Z,56.64
2022-08-22T03:20:20.873Z,57.13
2022-08-22T03:23:02.846Z,57.14
2022-08-22T03:25:46.201Z,55.71
2022-08-22T03:28:23.678Z,54.61
2022-08-22T03:31:17.288Z,54.06
2022-08-22T03:33:45.788Z,53.24
2022-08-22T03:36:15.704Z,52.47
2022-08-22T03:39:04.194Z,51.97
2022-08-22T03:41:47.278Z,51.73
2022-08-22T03:44:17.474Z,51.33
2022-08-22T03:47:13.321Z,50.97
2022-08-22T03:50:10.969Z,50.93
2022-08-22T03:53:15.338Z,50.28
2022-08-22T03:56:05.277Z,47.44
2022-08-22T03:58:49.656Z,47.22
2022-08-22T04:01:31.919Z,46.39
2022-08-22T04:04:25.181Z,45.40
2022-08-22T04:07:33.314Z,44.71
2022-08-22T04:10:00.633Z,43.85
2022-08-22T04:12:49.711Z,44.04
2022-08-22T04:15:54.444Z,44.09
2022-08-22T04:18:35.240Z,43.30
2022-08-22T04:21:23.948Z,42.82
2022-08-22T04:24:24.488Z,42.34
2022-08-22T04:27:03.860Z,42.78
2022-08-22T04:29:36.875Z,41.83
2022-08-22T04:32:37.708Z,42.06
2022-08-22T04:35:34.210Z,41.75
2022-08-22T04:38:26.825Z,41.18
2022-08-22T04:41:13.986Z,39.49
2022-08-22T04:43:50.252Z,38.68
2022-08-22T04:46:38.905Z,39.11
2022-08-22T04:49:31.448Z,38.32
2022-08-22T04:52:21.904Z,36.85
2022-08-22T04:55:30.630Z,36.67
2022-08-22T04:58:23.218Z,35.87
2022-08-22T05:01:12.097Z,35.01
2022-08-22T05:03:46.043Z,34.72
2022-08-22T05:06:19.361Z,33.63
2022-08-22T05:08:53.799Z,33.61
2022-08-22T05:11:23.831Z,33.23
2022-08-22T05:14:00.245Z,32.98
2022-08-22T05:16:40.852Z,32.18
2022-08-22T05:19:23.007Z,32.02
2022-08-22T05:21:56.145Z,31.31
2022-08-22T05:24:28.102Z,32.65
2022-08-22T05:27:01.117Z,32.92
2022-08-22T05:29:31.558Z,34.20
2022-08-22T05:32:03.806Z,35.99
2022-08-22T05:34:42.296Z,36.95
2022-08-22T05:37:18.028Z,37.02
2022-08-22T05:39:59.721Z,35.32
2022-08-22T05:42:31.815Z,34.19
2022-08-22T05:45:03.342Z,33.11
2022-08-22T05:47:45.649Z,34.12
2022-08-22T05:50:18.554Z,34.76
2022-08-22T05:52:59.197Z,36.59
2022-08-22T05:55:41.608Z,37.69
2022-08-22T05:58:27.603Z,37.16
2022-08-22T06:01:06.404Z,37.01
2022-08-22T06:04:12.059Z,37.44
2022-08-22T06:06:55.102Z,37.43
2022-08-22T06:09:37.334Z,35.24
2022-08-22T06:12:21.776Z,33.77
2022-08-22T06:15:29.048Z,32.51
2022-08-22T06:18:02.704Z,30.81
2022-08-22T06:20:46.153Z,30.02
2022-08-22T06:23:21.841Z,29.24
2022-08-22T06:25:52.858Z,28.99
2022-08-22T06:28:28.132Z,29.13
2022-08-22T06:30:57.854Z,28.15
2022-08-22T06:33:31.397Z,27.41
2022-08-22T06:36:26.440Z,28.51
2022-08-22T06:39:23.559Z,27.80
2022-08-22T06:42:14.507Z,28.22
2022-08-22T06:44:45.730Z,28.98
2022-08-22T06:47:19.447Z,29.93
2022-08-22T06:49:47.173Z,30.97
2022-08-22T06:52:22.622Z,31.56
2022-08-22T06:54:57.475Z,32.14
2022-08-22T06:57:36.099Z,32.09
2022-08-22T07:00:10.824Z,32.80
2022-08-22T07:02:48.896Z,33.51
2022-08-22T07:05:23.094Z,33.38
2022-08-22T07:07:52.405Z,34.09
2022-08-22T07:10:22.853Z,34.38
2022-08-22T07:12:54.355Z,35.05
2022-08-22T07:15:35.580Z,35.01
2022-08-22T07:18:25.175Z,34.93
2022-08-22T07:20:57.768Z,35.81
2022-08-22T07:23:37.395Z,36.37
2022-08-22T07:26:22.809Z,36.34
2022-08-22T07:28:58.365Z,36.68
2022-08-22T07:31:29.071Z,36.73
2022-08-22T07:34:19.273Z,37.43
2022-08-22T07:37:00.224Z,37.60
2022-08-22T07:39:38.628Z,38.27
2022-08-22T07:42:17.685Z,37.97
2022-08-22T07:44:47.857Z,38.07
2022-08-22T07:47:26.293Z,38.12
2022-08-22T07:50:03.957Z,38.70
2022-08-22T07:52:40.763Z,38.33
2022-08-22T07:55:22.965Z,38.64
2022-08-22T07:58:03.880Z,38.48
2022-08-22T08:00:32.647Z,38.64
2022-08-22T08:03:04.866Z,38.63
2022-08-22T08:05:36.181Z,38.88
2022-08-22T08:08:09.308Z,39.00
2022-08-22T08:10:42.930Z,39.19
2022-08-22T08:13:14.974Z,39.66
2022-08-22T08:15:46.069Z,39.55
2022-08-22T08:18:21.928Z,39.73
2022-08-22T08:21:00.257Z,39.49
2022-08-22T08:23:31.563Z,39.92
2022-08-22T08:26:20.637Z,40.92
2022-08-22T08:28:51.550Z,40.72
2022-08-22T08:31:45.310Z,41.00
2022-08-22T08:34:18.482Z,41.11
2022-08-22T08:37:04.179Z,40.98
2022-08-22T08:39:41.030Z,40.82
2022-08-22T08:42:30.064Z,40.59
2022-08-22T08:45:15.693Z,40.96
2022-08-22T08:48:01.308Z,40.49
2022-08-22T08:50:56.672Z,40.36
2022-08-22T08:53:43.217Z,40.77
2022-08-22T08:56:34.085Z,40.63
2022-08-22T08:59:18.836Z,40.37
2022-08-22T09:02:05.544Z,40.43
2022-08-22T09:05:07.868Z,40.49
2022-08-22T09:07:44.219Z,40.38
2022-08-22T09:10:42.292Z,40.42
2022-08-22T09:13:55.428Z,40.41
2022-08-22T09:16:45.575Z,40.70
2022-08-22T09:19:40.735Z,41.37
2022-08-22T09:22:14.432Z,40.98
2022-08-22T09:25:12.262Z,40.95
2022-08-22T09:28:08.417Z,40.75
2022-08-22T09:31:48.088Z,40.96
2022-08-22T09:34:27.190Z,41.22
2022-08-22T09:37:26.142Z,41.63
2022-08-22T09:40:04.869Z,41.58
2022-08-22T09:43:06.395Z,42.00
2022-08-22T09:46:02.088Z,42.09
2022-08-22T09:48:35.763Z,42.35
2022-08-22T09:51:32.702Z,41.25
2022-08-22T09:54:32.828Z,42.07
2022-08-22T09:57:09.414Z,41.96
2022-08-22T10:00:17.568Z,42.44
2022-08-22T10:03:15.649Z,42.51
2022-08-22T10:05:46.569Z,42.75
2022-08-22T10:08:51.150Z,42.28
2022-08-22T10:11:26.158Z,42.92
2022-08-22T10:14:04.883Z,42.84
2022-08-22T10:16:55.504Z,43.06
2022-08-22T10:19:55.078Z,42.72
2022-08-22T10:22:41.512Z,42.73
2022-08-22T10:25:33.584Z,42.62
2022-08-22T10:28:16.902Z,42.67
2022-08-22T10:31:20.058Z,42.00
2022-08-22T10:34:05.628Z,42.34
2022-08-22T10:36:43.248Z,42.19
2022-08-22T10:39:15.262Z,42.33
2022-08-22T10:42:16.956Z,41.86
2022-08-22T10:45:23.653Z,42.05
2022-08-22T10:47:54.398Z,41.70
2022-08-22T10:50:36.527Z,41.91
2022-08-22T10:53:35.576Z,41.56
2022-08-22T10:56:16.196Z,40.71
2022-08-22T10:59:13.766Z,40.00
2022-08-22T11:01:59.796Z,40.03
2022-08-22T11:04:42.293Z,37.96
2022-08-22T11:07:29.172Z,36.40
2022-08-22T11:10:09.264Z,34.93
2022-08-22T11:12:44.567Z,35.21
2022-08-22T11:15:40.977Z,34.63
2022-08-22T11:18:18.106Z,34.38
2022-08-22T11:20:55.013Z,34.54
2022-08-22T11:23:40.845Z,33.99
2022-08-22T11:26:29.908Z,33.77
2022-08-22T11:29:13.392Z,33.91
2022-08-22T11:31:51.654Z,34.13
2022-08-22T11:34:40.658Z,34.23
2022-08-22T11:37:42.526Z,33.98
2022-08-22T11:40:20.577Z,33.75
2022-08-22T11:42:51.517Z,34.22
2022-08-22T11:45:25.071Z,34.40
2022-08-22T11:48:30.669Z,34.18
2022-08-22T11:51:13.713Z,34.41
2022-08-22T11:53:49.647Z,34.73
2022-08-22T11:56:31.496Z,34.20
2022-08-22T11:59:14.960Z,34.19
2022-08-22T12:01:55.590Z,33.80
2022-08-22T12:04:44.402Z,33.76
2022-08-22T12:07:27.037Z,33.26
2022-08-22T12:10:13.852Z,33.53
2022-08-22T12:12:51.329Z,33.58
2022-08-22T12:15:33.450Z,32.22
2022-08-22T12:18:21.784Z,30.61
2022-08-22T12:21:09.085Z,30.37
2022-08-22T12:23:58.350Z,30.21
2022-08-22T12:26:37.028Z,31.15
2022-08-22T12:29:16.919Z,31.31
2022-08-22T12:32:28.589Z,29.99
2022-08-22T12:35:14.910Z,29.64
2022-08-22T12:38:27.867Z,29.96
2022-08-22T12:41:02.894Z,29.96
2022-08-22T12:43:58.114Z,29.51
2022-08-22T12:47:05.165Z,29.60
2022-08-22T12:49:54.234Z,29.66
2022-08-22T12:52:33.486Z,29.95
2022-08-22T12:55:12.724Z,29.85
2022-08-22T12:57:46.208Z,30.75
2022-08-22T13:00:34.693Z,30.55
2022-08-22T13:03:10.045Z,30.54
2022-08-22T13:05:44.344Z,30.80
2022-08-22T13:08:35.856Z,31.29
2022-08-22T13:11:23.268Z,31.37
2022-08-22T13:14:00.601Z,31.61
2022-08-22T13:16:39.077Z,31.74
2022-08-22T13:19:13.583Z,30.78
2022-08-22T13:22:09.004Z,30.93
2022-08-22T13:24:51.837Z,31.73
2022-08-22T13:27:36.782Z,32.23
2022-08-22T13:30:13.540Z,32.82
2022-08-22T13:32:51.380Z,32.16
2022-08-22T13:35:42.199Z,31.78
2022-08-22T13:38:17.532Z,31.89
2022-08-22T13:40:56.031Z,32.32
2022-08-22T13:43:37.183Z,32.05
2022-08-22T13:46:11.015Z,31.44
2022-08-22T13:49:00.831Z,31.64
2022-08-22T13:51:57.763Z,31.77
2022-08-22T13:55:00.288Z,31.77
2022-08-22T13:57:38.037Z,31.61
2022-08-22T14:00:11.501Z,31.11
2022-08-22T14:02:59.430Z,31.11
2022-08-22T14:05:53.225Z,30.46
2022-08-22T14:08:20.761Z,30.38
2022-08-22T14:11:03.919Z,30.23
2022-08-22T14:13:48.354Z,30.41
2022-08-22T14:16:39.834Z,30.48
2022-08-22T14:19:08.752Z,30.70
2022-08-22T14:21:45.686Z,31.15
2022-08-22T14:24:29.157Z,31.67
2022-08-22T14:27:29.128Z,31.86
2022-08-22T14:30:01.661Z,31.87
2022-08-22T14:32:49.289Z,31.57
2022-08-22T14:35:37.518Z,31.47
2022-08-22T14:38:33.286Z,31.93
2022-08-22T14:41:14.028Z,31.44
2022-08-22T14:44:24.109Z,31.44
2022-08-22T14:47:01.383Z,31.33
2022-08-22T14:49:59.090Z,31.40
2022-08-22T14:52:34.271Z,31.63
2022-08-22T14:55:26.172Z,32.21
2022-08-22T14:57:57.802Z,32.36
2022-08-22T15:00:36.203Z,32.50
2022-08-22T15:03:29.004Z,33.15
2022-08-22T15:06:00.480Z,33.80
2022-08-22T15:08:32.989Z,34.61
2022-08-22T15:11:33.557Z,34.88
2022-08-22T15:14:29.932Z,35.42
2022-08-22T15:17:01.698Z,35.50
2022-08-22T15:19:43.084Z,35.71
2022-08-22T15:22:25.922Z,35.75
2022-08-22T15:25:02.693Z,35.71
2022-08-22T15:27:33.922Z,35.89
2022-08-22T15:30:05.274Z,35.91
2022-08-22T15:32:41.739Z,35.76
2022-08-22T15:35:17.800Z,36.13
2022-08-22T15:38:09.042Z,36.33
2022-08-22T15:40:44.322Z,36.51
2022-08-22T15:43:42.201Z,36.39
2022-08-22T15:46:17.827Z,36.53
2022-08-22T15:49:06.536Z,36.69
2022-08-22T15:51:43.272Z,36.93
2022-08-22T15:54:24.963Z,36.71
2022-08-22T15:56:53.278Z,36.74
2022-08-22T15:59:23.413Z,36.89
2022-08-22T16:01:57.308Z,37.21
2022-08-22T16:04:40.446Z,37.18
2022-08-22T16:07:23.599Z,37.22
2022-08-22T16:09:55.405Z,37.11
2022-08-22T16:12:39.798Z,37.16
2022-08-22T16:15:29.964Z,37.36
2022-08-22T16:17:58.023Z,37.88
2022-08-22T16:20:25.078Z,37.88
2022-08-22T16:22:58.281Z,38.04
2022-08-22T16:25:50.684Z,38.14
2022-08-22T16:28:31.652Z,38.44
2022-08-22T16:31:25.014Z,38.49
2022-08-22T16:33:52.188Z,38.52
2022-08-22T16:36:38.041Z,38.55
2022-08-22T16:39:22.726Z,38.82
2022-08-22T16:41:49.794Z,38.89
2022-08-22T16:44:29.039Z,39.02
2022-08-22T16:47:18.912Z,39.06
2022-08-22T16:49:52.223Z,38.96
2022-08-22T16:52:25.416Z,39.09
2022-08-22T16:54:55.962Z,39.46
2022-08-22T16:57:27.539Z,39.38
2022-08-22T17:00:13.329Z,39.78
2022-08-22T17:03:06.888Z,39.91
2022-08-22T17:06:09.506Z,40.10
2022-08-22T17:08:58.539Z,40.01
2022-08-22T17:11:50.840Z,40.54
2022-08-22T17:14:32.606Z,40.64
2022-08-22T17:17:35.149Z,40.75
2022-08-22T17:20:11.165Z,40.85
2022-08-22T17:23:03.038Z,41.09
2022-08-22T17:25:36.588Z,41.42
2022-08-22T17:28:35.122Z,41.59
2022-08-22T17:31:26.252Z,41.66
2022-08-22T17:34:14.387Z,41.79
2022-08-22T17:37:09.410Z,41.77
2022-08-22T17:39:56.029Z,41.91
2022-08-22T17:42:42.041Z,42.01
2022-08-22T17:45:18.148Z,42.11
2022-08-22T17:48:05.470Z,42.23
2022-08-22T17:50:46.359Z,42.41
2022-08-22T17:53:45.017Z,42.39
2022-08-22T17:56:28.327Z,42.72
2022-08-22T17:59:05.598Z,42.69
2022-08-22T18:01:50.255Z,42.89
2022-08-22T18:04:46.857Z,43.05
2022-08-22T18:07:14.607Z,43.11
2022-08-22T18:09:57.067Z,43.17
2022-08-22T18:12:40.384Z,43.44
2022-08-22T18:15:34.153Z,43.61
2022-08-22T18:18:09.570Z,43.58
2022-08-22T18:21:03.279Z,43.74
2022-08-22T18:23:44.271Z,43.69
2022-08-22T18:26:42.597Z,43.89
2022-08-22T18:29:16.346Z,44.17
2022-08-22T18:31:52.430Z,44.07
2022-08-22T18:34:31.794Z,44.59
2022-08-22T18:37:26.096Z,44.38
2022-08-22T18:40:01.300Z,44.28
2022-08-22T18:42:37.092Z,44.31
2022-08-22T18:45:04.595Z,44.56
2022-08-22T18:47:34.700Z,44.34
2022-08-22T18:50:32.614Z,44.87
2022-08-22T18:53:00.310Z,44.88
2022-08-22T18:55:27.844Z,44.64
2022-08-22T18:58:18.121Z,44.60
2022-08-22T19:01:06.272Z,44.52
2022-08-22T19:04:03.976Z,44.69
2022-08-22T19:06:45.295Z,44.61
2022-08-22T19:09:32.343Z,44.65
2022-08-22T19:12:19.622Z,44.76
2022-08-22T19:15:14.984Z,45.11
2022-08-22T19:17:45.097Z,45.35
2022-08-22T19:20:56.630Z,45.40
2022-08-22T19:23:32.933Z,45.63
2022-08-22T19:26:24.675Z,45.09
2022-08-22T19:29:30.491Z,45.41
2022-08-22T19:32:02.139Z,45.75
2022-08-22T19:34:39.899Z,45.95
2022-08-22T19:37:30.729Z,46.17
2022-08-22T19:40:12.082Z,46.16
2022-08-22T19:42:44.205Z,46.13
2022-08-22T19:45:29.203Z,46.34
2022-08-22T19:48:15.716Z,45.93
2022-08-22T19:50:44.040Z,46.14
2022-08-22T19:53:40.185Z,46.28
2022-08-22T19:56:20.421Z,46.12
2022-08-22T19:59:02.812Z,46.28
2022-08-22T20:01:56.332Z,46.30
2022-08-22T20:04:39.348Z,46.22
2022-08-22T20:07:21.484Z,46.46
2022-08-22T20:10:19.089Z,46.66
2022-08-22T20:12:55.561Z,46.88
2022-08-22T20:15:27.450Z,46.83
2022-08-22T20:20:59.428Z,46.73
2022-08-22T20:23:31.724Z,46.43
2022-08-22T20:25:59.880Z,46.39
2022-08-22T20:28:30.006Z,46.20
2022-08-22T20:32:15.135Z,47.36
2022-08-22T20:34:43.376Z,46.74
2022-08-22T20:37:40.273Z,46.74
2022-08-22T20:40:55.261Z,46.18
2022-08-22T20:43:24.117Z,46.04
2022-08-22T20:46:33.387Z,45.81
2022-08-22T20:49:01.364Z,45.40
2022-08-22T20:51:31.706Z,45.37
2022-08-22T20:54:10.091Z,45.71
2022-08-22T20:56:53.633Z,45.85
2022-08-22T20:59:41.665Z,46.36
2022-08-22T21:02:32.831Z,46.64
2022-08-22T21:05:04.405Z,46.77
2022-08-22T21:07:35.692Z,46.53
2022-08-22T21:10:27.316Z,46.70
2022-08-22T21:13:11.647Z,46.62
2022-08-22T21:15:53.114Z,46.82
2022-08-22T21:18:36.131Z,46.82
2022-08-22T21:21:17.340Z,46.87
2022-08-22T21:23:51.619Z,47.05
2022-08-22T21:26:28.594Z,47.03
2022-08-22T21:29:06.961Z,47.27
2022-08-22T21:31:47.621Z,47.31
2022-08-22T21:34:27.578Z,47.21
2022-08-22T21:36:59.833Z,47.22
2022-08-22T21:39:34.234Z,46.88
2022-08-22T21:42:01.274Z,46.67
2022-08-22T21:44:32.318Z,46.52
2022-08-22T21:47:33.258Z,46.27
2022-08-22T21:50:26.120Z,46.12
2022-08-22T21:52:56.140Z,46.06
2022-08-22T21:55:29.686Z,45.98
2022-08-22T21:58:09.053Z,45.85
2022-08-22T22:00:48.697Z,45.96
2022-08-22T22:03:20.394Z,45.72
2022-08-22T22:05:53.109Z,45.63
2022-08-22T22:08:20.477Z,45.63
2022-08-22T22:10:49.279Z,45.55
2022-08-22T22:13:19.170Z,45.23
2022-08-22T22:15:48.972Z,45.29
2022-08-22T22:18:19.692Z,45.37
2022-08-22T22:20:48.343Z,45.51
2022-08-22T22:23:15.464Z,45.73
2022-08-22T22:25:44.291Z,45.78
2022-08-22T22:28:33.957Z,45.91
2022-08-22T22:31:01.344Z,46.27
2022-08-22T22:33:32.072Z,46.40
2022-08-22T22:36:05.338Z,46.31
2022-08-22T22:38:32.912Z,46.74
2022-08-22T22:41:00.075Z,47.11
2022-08-22T22:43:28.154Z,47.27
2022-08-22T22:45:55.267Z,47.37
2022-08-22T22:48:24.858Z,47.29
2022-08-22T22:50:55.270Z,47.65
2022-08-22T22:53:33.838Z,47.48
2022-08-22T22:56:06.188Z,47.76
2022-08-22T22:58:35.635Z,47.92
2022-08-22T23:01:11.362Z,47.96
2022-08-22T23:03:38.839Z,47.70
2022-08-22T23:06:15.980Z,47.34
2022-08-22T23:08:43.262Z,47.17
2022-08-22T23:11:18.048Z,46.89
2022-08-22T23:13:45.679Z,46.82
2022-08-22T23:16:16.646Z,46.96
2022-08-22T23:18:44.469Z,46.68
2022-08-22T23:21:20.406Z,46.21
2022-08-22T23:23:48.710Z,46.14
2022-08-22T23:26:16.491Z,46.11
2022-08-22T23:28:44.433Z,45.86
2022-08-22T23:31:19.044Z,45.83
2022-08-22T23:33:46.696Z,45.79
2022-08-22T23:36:18.924Z,45.86
2022-08-22T23:38:47.224Z,45.90
2022-08-22T23:41:17.974Z,45.99
2022-08-22T23:43:46.855Z,46.06
2022-08-22T23:46:16.396Z,46.03
2022-08-22T23:48:44.370Z,46.20
2022-08-22T23:51:13.328Z,46.42
2022-08-22T23:53:41.731Z,46.53
2022-08-22T23:56:09.865Z,46.60
2022-08-22T23:58:49.076Z,46.81
